createdAt,value
2022-12-29T00:01:58.304Z,43.93
2022-12-29T00:04:28.212Z,41.90
2022-12-29T00:06:57.755Z,43.10
2022-12-29T00:09:28.465Z,40.65
2022-12-29T00:11:58.577Z,41.50
2022-12-29T00:14:46.910Z,41.25
2022-12-29T00:17:16.417Z,41.50
2022-12-29T00:20:06.209Z,41.63
2022-12-29T00:22:55.091Z,39.50
2022-12-29T00:25:43.436Z,40.53
2022-12-29T00:28:31.432Z,41.50
2022-12-29T00:31:19.488Z,39.80
2022-12-29T00:34:10.164Z,40.15
2022-12-29T00:36:40.696Z,40.90
2022-12-29T00:39:30.067Z,40.93
2022-12-29T00:42:22.504Z,40.40
2022-12-29T00:44:52.419Z,43.13
2022-12-29T00:47:22.329Z,42.25
2022-12-29T00:49:52.030Z,39.55
2022-12-29T00:52:21.739Z,41.85
2022-12-29T00:54:51.447Z,40.70
2022-12-29T00:57:21.158Z,41.90
2022-12-29T00:59:50.660Z,39.55
2022-12-29T01:02:20.474Z,42.60
2022-12-29T01:04:50.689Z,40.30
2022-12-29T01:07:20.400Z,38.77
2022-12-29T01:10:08.115Z,39.17
2022-12-29T01:12:42.546Z,40.17
2022-12-29T01:15:15.732Z,39.30
2022-12-29T01:17:45.254Z,39.23
2022-12-29T01:20:14.949Z,38.30
2022-12-29T01:22:44.660Z,37.93
2022-12-29T01:25:14.157Z,39.30
2022-12-29T01:27:44.073Z,36.95
2022-12-29T01:30:15.823Z,40.00
2022-12-29T01:32:45.333Z,39.75
2022-12-29T01:35:15.648Z,40.07
2022-12-29T01:37:45.358Z,38.07
2022-12-29T01:40:15.481Z,38.20
2022-12-29T01:42:45.389Z,38.70
2022-12-29T01:45:16.529Z,38.13
2022-12-29T01:47:50.521Z,36.67
2022-12-29T01:50:24.065Z,38.80
2022-12-29T01:52:57.941Z,38.10
2022-12-29T01:55:28.468Z,37.50
2022-12-29T01:58:01.054Z,38.10
2022-12-29T02:00:30.731Z,39.25
2022-12-29T02:03:00.513Z,39.97
2022-12-29T02:05:34.381Z,36.90
2022-12-29T02:08:05.009Z,37.45
2022-12-29T02:10:37.988Z,36.80
2022-12-29T02:13:07.695Z,38.10
2022-12-29T02:15:44.166Z,35.50
2022-12-29T02:18:19.801Z,39.03
2022-12-29T02:21:19.441Z,37.53
2022-12-29T02:24:15.538Z,38.00
2022-12-29T02:26:56.861Z,38.25
2022-12-29T02:29:43.420Z,38.63
2022-12-29T02:32:17.375Z,38.00
2022-12-29T02:34:53.732Z,37.43
2022-12-29T02:37:27.045Z,36.50
2022-12-29T02:40:00.911Z,36.38
2022-12-29T02:42:35.291Z,37.87
2022-12-29T02:45:06.872Z,38.40
2022-12-29T02:47:39.015Z,37.30
2022-12-29T02:50:15.285Z,38.43
2022-12-29T02:52:48.260Z,38.43
2022-12-29T02:55:18.198Z,36.90
2022-12-29T02:57:47.685Z,37.40
2022-12-29T03:00:18.620Z,37.75
2022-12-29T03:03:05.639Z,37.67
2022-12-29T03:05:53.467Z,37.75
2022-12-29T03:08:26.012Z,37.60
2022-12-29T03:10:59.436Z,37.60
2022-12-29T03:13:50.235Z,37.13
2022-12-29T03:16:22.875Z,37.97
2022-12-29T03:18:59.636Z,37.50
2022-12-29T03:21:46.185Z,36.60
2022-12-29T03:24:18.965Z,37.47
2022-12-29T03:26:51.129Z,34.78
2022-12-29T03:29:22.063Z,35.27
2022-12-29T03:31:53.056Z,37.20
2022-12-29T03:34:24.553Z,36.60
2022-12-29T03:36:58.357Z,37.95
2022-12-29T03:39:29.297Z,35.23
2022-12-29T03:42:02.479Z,36.87
2022-12-29T03:44:36.919Z,37.17
2022-12-29T03:47:07.845Z,37.40
2022-12-29T03:49:37.963Z,38.40
2022-12-29T03:52:07.867Z,38.13
2022-12-29T03:54:40.840Z,37.93
2022-12-29T03:57:10.970Z,39.43
2022-12-29T04:00:01.162Z,38.60
2022-12-29T04:02:33.072Z,41.30
2022-12-29T04:05:03.453Z,40.00
2022-12-29T04:07:33.152Z,37.17
2022-12-29T04:10:03.880Z,39.10
2022-12-29T04:12:35.235Z,38.38
2022-12-29T04:15:07.474Z,42.37
2022-12-29T04:17:37.116Z,42.85
2022-12-29T04:20:27.082Z,41.77
2022-12-29T04:23:01.712Z,40.93
2022-12-29T04:25:32.642Z,43.50
2022-12-29T04:28:03.587Z,42.20
2022-12-29T04:31:12.062Z,41.53
2022-12-29T04:33:44.592Z,41.40
2022-12-29T04:36:14.282Z,40.37
2022-12-29T04:38:44.804Z,39.60
2022-12-29T04:41:14.323Z,40.15
2022-12-29T04:43:44.630Z,40.07
2022-12-29T04:46:33.031Z,40.33
2022-12-29T04:49:09.258Z,39.90
2022-12-29T04:51:58.813Z,42.10
2022-12-29T04:54:28.517Z,42.77
2022-12-29T04:57:05.596Z,43.03
2022-12-29T04:59:35.102Z,42.85
2022-12-29T05:02:05.140Z,41.05
2022-12-29T05:07:06.068Z,41.93
2022-12-29T05:09:35.774Z,42.73
2022-12-29T05:12:07.329Z,43.07
2022-12-29T05:14:40.111Z,41.70
2022-12-29T05:17:10.639Z,41.23
2022-12-29T05:19:40.749Z,41.40
2022-12-29T05:22:11.081Z,43.27
2022-12-29T05:24:41.825Z,40.87
2022-12-29T05:27:12.127Z,39.45
2022-12-29T05:29:58.217Z,40.60
2022-12-29T05:32:28.343Z,40.57
2022-12-29T05:34:58.251Z,40.47
2022-12-29T05:37:28.363Z,41.03
2022-12-29T05:39:59.917Z,41.97
2022-12-29T05:42:31.878Z,41.40
2022-12-29T05:45:15.735Z,40.43
2022-12-29T05:48:06.926Z,38.70
2022-12-29T05:50:52.624Z,39.65
2022-12-29T05:53:28.258Z,39.60
2022-12-29T05:56:00.216Z,39.63
2022-12-29T05:58:31.754Z,39.27
2022-12-29T06:01:01.371Z,38.50
2022-12-29T06:03:31.266Z,39.90
2022-12-29T06:06:01.921Z,41.90
2022-12-29T06:08:32.647Z,42.90
2022-12-29T06:11:02.968Z,40.63
2022-12-29T06:13:33.904Z,43.95
2022-12-29T06:16:04.997Z,42.65
2022-12-29T06:18:35.572Z,42.65
2022-12-29T06:21:07.331Z,44.57
2022-12-29T06:23:37.051Z,43.35
2022-12-29T06:26:07.781Z,41.20
2022-12-29T06:28:38.110Z,44.30
2022-12-29T06:31:10.869Z,42.87
2022-12-29T06:33:40.582Z,47.20
2022-12-29T06:36:10.916Z,46.95
2022-12-29T06:38:40.405Z,47.25
2022-12-29T06:41:11.142Z,48.45
2022-12-29T06:44:01.538Z,50.30
2022-12-29T06:46:52.747Z,45.40
2022-12-29T06:49:23.481Z,43.23
2022-12-29T06:51:52.992Z,46.90
2022-12-29T06:54:23.088Z,43.60
2022-12-29T06:56:53.019Z,42.90
2022-12-29T06:59:22.719Z,41.50
2022-12-29T07:01:53.188Z,41.75
2022-12-29T07:04:23.149Z,41.10
2022-12-29T07:06:53.064Z,40.70
2022-12-29T07:09:23.196Z,39.95
2022-12-29T07:11:52.915Z,42.25
2022-12-29T07:14:23.006Z,42.90
2022-12-29T07:16:53.159Z,42.60
2022-12-29T07:19:23.245Z,45.30
2022-12-29T07:21:55.405Z,44.25
2022-12-29T07:24:26.140Z,46.02
2022-12-29T07:26:56.869Z,44.50
2022-12-29T07:29:28.459Z,46.20
2022-12-29T07:31:58.166Z,47.80
2022-12-29T07:34:28.053Z,48.43
2022-12-29T07:36:58.365Z,48.50
2022-12-29T07:39:28.901Z,48.13
2022-12-29T07:42:04.537Z,48.17
2022-12-29T07:44:42.061Z,53.05
2022-12-29T07:47:31.198Z,48.95
2022-12-29T07:50:01.308Z,50.30
2022-12-29T07:52:31.241Z,46.27
2022-12-29T07:55:01.343Z,41.77
2022-12-29T07:57:32.287Z,37.23
2022-12-29T08:00:02.809Z,37.85
2022-12-29T08:02:42.815Z,33.05
2022-12-29T08:05:13.281Z,31.85
2022-12-29T08:07:45.044Z,31.33
2022-12-29T08:10:15.601Z,31.50
2022-12-29T08:12:46.085Z,32.20
2022-12-29T08:15:15.806Z,35.20
2022-12-29T08:17:45.300Z,33.43
2022-12-29T08:20:15.005Z,37.00
2022-12-29T08:22:44.713Z,35.43
2022-12-29T08:25:15.049Z,32.90
2022-12-29T08:27:45.361Z,31.20
2022-12-29T08:30:17.380Z,30.30
2022-12-29T08:32:47.438Z,28.70
2022-12-29T08:35:17.556Z,29.00
2022-12-29T08:37:47.720Z,28.70
2022-12-29T08:40:17.594Z,31.70
2022-12-29T08:42:47.293Z,28.87
2022-12-29T08:45:17.004Z,28.85
2022-12-29T08:47:46.710Z,29.50
2022-12-29T08:50:17.028Z,26.13
2022-12-29T08:52:47.151Z,26.93
2022-12-29T08:55:16.855Z,28.05
2022-12-29T08:57:47.587Z,28.25
2022-12-29T09:00:22.414Z,26.00
2022-12-29T09:02:53.512Z,23.98
2022-12-29T09:05:23.475Z,26.35
2022-12-29T09:07:53.177Z,24.00
2022-12-29T09:10:23.116Z,23.80
2022-12-29T09:12:53.014Z,23.67
2022-12-29T09:15:23.120Z,22.27
2022-12-29T09:17:53.031Z,24.25
2022-12-29T09:20:22.602Z,23.10
2022-12-29T09:22:52.249Z,22.85
2022-12-29T09:25:24.823Z,22.05
2022-12-29T09:27:54.938Z,21.35
2022-12-29T09:30:26.082Z,20.35
2022-12-29T09:32:57.836Z,19.77
2022-12-29T09:35:27.951Z,19.00
2022-12-29T09:37:57.458Z,18.30
2022-12-29T09:40:30.396Z,18.33
2022-12-29T09:43:17.352Z,19.03
2022-12-29T09:45:48.291Z,20.53
2022-12-29T09:48:19.634Z,19.20
2022-12-29T09:50:51.597Z,17.32
2022-12-29T09:53:23.761Z,18.07
2022-12-29T09:55:54.903Z,16.57
2022-12-29T09:58:29.658Z,15.63
2022-12-29T10:01:02.987Z,15.85
2022-12-29T10:03:37.904Z,15.35
2022-12-29T10:06:12.666Z,15.87
2022-12-29T10:08:45.614Z,15.00
2022-12-29T10:11:21.255Z,14.90
2022-12-29T10:14:01.157Z,14.15
2022-12-29T10:16:36.208Z,13.65
2022-12-29T10:19:21.404Z,12.20
2022-12-29T10:21:58.652Z,13.20
2022-12-29T10:24:29.278Z,12.55
2022-12-29T10:26:59.399Z,12.60
2022-12-29T10:29:34.426Z,12.50
2022-12-29T10:32:05.800Z,11.10
2022-12-29T10:34:38.147Z,11.87
2022-12-29T10:39:39.613Z,9.27
2022-12-29T10:42:13.443Z,9.75
2022-12-29T10:44:43.739Z,9.95
2022-12-29T10:47:14.466Z,8.70
2022-12-29T10:49:46.226Z,9.57
2022-12-29T10:52:17.366Z,10.13
2022-12-29T10:54:49.505Z,9.60
2022-12-29T10:57:25.384Z,9.13
2022-12-29T10:59:55.091Z,9.45
2022-12-29T11:02:31.162Z,8.75
2022-12-29T11:05:04.076Z,10.27
2022-12-29T11:07:33.976Z,10.90
2022-12-29T11:10:21.145Z,10.90
2022-12-29T11:12:58.228Z,9.60
2022-12-29T11:15:27.956Z,10.30
2022-12-29T11:17:59.911Z,12.57
2022-12-29T11:20:31.899Z,13.93
2022-12-29T11:23:02.399Z,15.20
2022-12-29T11:25:32.519Z,14.33
2022-12-29T11:28:02.873Z,12.20
2022-12-29T11:30:33.776Z,11.97
2022-12-29T11:33:05.336Z,12.65
2022-12-29T11:35:37.087Z,10.70
2022-12-29T11:38:19.901Z,10.85
2022-12-29T11:40:50.023Z,10.95
2022-12-29T11:43:23.174Z,11.57
2022-12-29T11:45:55.046Z,10.90
2022-12-29T11:48:27.131Z,12.00
2022-12-29T11:50:59.912Z,11.30
2022-12-29T11:53:32.890Z,11.17
2022-12-29T11:56:04.258Z,11.83
2022-12-29T11:58:34.577Z,11.57
2022-12-29T12:01:06.528Z,12.10
2022-12-29T12:03:39.332Z,9.90
2022-12-29T12:06:13.561Z,10.25
2022-12-29T12:08:45.857Z,10.50
2022-12-29T12:13:46.416Z,10.10
2022-12-29T12:16:17.572Z,10.37
2022-12-29T12:18:51.238Z,10.65
2022-12-29T12:23:58.239Z,10.50
2022-12-29T12:26:33.276Z,11.07
2022-12-29T12:29:09.362Z,9.93
2022-12-29T12:31:44.809Z,11.13
2022-12-29T12:34:17.592Z,9.93
2022-12-29T12:37:04.696Z,9.10
2022-12-29T12:39:40.803Z,10.23
2022-12-29T12:42:20.624Z,9.00
2022-12-29T12:44:58.399Z,9.70
2022-12-29T12:47:39.988Z,10.33
2022-12-29T12:50:33.662Z,9.80
2022-12-29T12:53:18.529Z,9.80
2022-12-29T12:56:08.715Z,8.93
2022-12-29T12:58:46.161Z,8.33
2022-12-29T13:01:27.474Z,9.00
2022-12-29T13:04:17.571Z,8.60
2022-12-29T13:06:58.744Z,8.57
2022-12-29T13:09:56.512Z,8.13
2022-12-29T13:12:36.870Z,6.53
2022-12-29T13:15:20.503Z,7.03
2022-12-29T13:17:57.799Z,8.47
2022-12-29T13:20:37.116Z,7.33
2022-12-29T13:23:14.986Z,7.27
2022-12-29T13:25:52.466Z,7.13
2022-12-29T13:28:30.002Z,6.63
2022-12-29T13:31:05.527Z,5.80
2022-12-29T13:33:47.236Z,5.80
2022-12-29T13:36:28.275Z,6.55
2022-12-29T13:39:05.283Z,6.40
2022-12-29T13:41:40.458Z,6.50
2022-12-29T13:44:17.183Z,6.40
2022-12-29T13:46:47.182Z,6.07
2022-12-29T13:49:18.663Z,6.97
2022-12-29T13:51:50.836Z,6.72
2022-12-29T13:54:27.717Z,6.85
2022-12-29T13:57:03.751Z,6.93
2022-12-29T13:59:41.277Z,8.77
2022-12-29T14:02:18.089Z,8.03
2022-12-29T14:04:58.574Z,8.77
2022-12-29T14:07:29.013Z,7.67
2022-12-29T14:09:59.139Z,9.70
2022-12-29T14:12:34.736Z,9.63
2022-12-29T14:15:07.713Z,9.47
2022-12-29T14:18:01.227Z,10.50
2022-12-29T14:20:31.346Z,11.33
2022-12-29T14:23:02.000Z,12.40
2022-12-29T14:25:49.407Z,12.87
2022-12-29T14:28:23.828Z,12.77
2022-12-29T14:30:55.781Z,14.27
2022-12-29T14:33:27.955Z,13.97
2022-12-29T14:35:58.886Z,14.10
2022-12-29T14:38:31.468Z,15.00
2022-12-29T14:43:30.667Z,18.90
2022-12-29T14:46:02.840Z,16.50
2022-12-29T14:48:37.874Z,14.35
2022-12-29T14:51:26.014Z,14.30
2022-12-29T14:53:56.146Z,13.00
2022-12-29T14:56:31.975Z,14.20
2022-12-29T14:59:03.416Z,13.77
2022-12-29T15:01:38.396Z,15.10
2022-12-29T15:04:16.932Z,15.20
2022-12-29T15:06:47.191Z,15.70
2022-12-29T15:09:23.884Z,14.90
2022-12-29T15:11:55.014Z,16.85
2022-12-29T15:14:32.215Z,16.10
2022-12-29T15:17:11.832Z,16.20
2022-12-29T15:19:41.334Z,18.33
2022-12-29T15:22:12.483Z,17.07
2022-12-29T15:24:44.030Z,17.10
2022-12-29T15:27:15.600Z,16.00
2022-12-29T15:29:46.315Z,15.60
2022-12-29T15:32:23.357Z,17.65
2022-12-29T15:34:53.918Z,19.20
2022-12-29T15:37:25.678Z,20.35
2022-12-29T15:39:56.842Z,20.52
2022-12-29T15:42:34.884Z,21.85
2022-12-29T15:45:11.189Z,20.65
2022-12-29T15:47:42.938Z,20.30
2022-12-29T15:50:17.982Z,20.30
2022-12-29T15:52:48.088Z,19.70
2022-12-29T15:55:23.964Z,18.30
2022-12-29T15:57:56.932Z,19.60
2022-12-29T16:00:29.511Z,20.90
2022-12-29T16:03:01.004Z,20.08
2022-12-29T16:05:36.666Z,21.10
2022-12-29T16:08:22.900Z,21.40
2022-12-29T16:10:54.346Z,22.40
2022-12-29T16:13:27.171Z,23.40
2022-12-29T16:15:59.942Z,23.15
2022-12-29T16:18:31.662Z,24.65
2022-12-29T16:21:02.001Z,26.23
2022-12-29T16:23:33.344Z,24.30
2022-12-29T16:26:04.674Z,25.53
2022-12-29T16:28:37.267Z,26.33
2022-12-29T16:31:07.951Z,25.85
2022-12-29T16:33:39.983Z,26.17
2022-12-29T16:36:30.541Z,24.65
2022-12-29T16:39:18.013Z,25.45
2022-12-29T16:41:47.977Z,26.20
2022-12-29T16:44:21.374Z,25.70
2022-12-29T16:47:14.088Z,26.85
2022-12-29T16:49:47.003Z,26.90
2022-12-29T16:52:19.993Z,30.90
2022-12-29T16:54:51.743Z,32.50
2022-12-29T16:57:26.366Z,34.48
2022-12-29T16:59:57.508Z,36.37
2022-12-29T17:02:29.423Z,36.30
2022-12-29T17:04:59.355Z,32.55
2022-12-29T17:07:29.912Z,32.85
2022-12-29T17:09:59.598Z,37.20
2022-12-29T17:12:31.169Z,37.20
2022-12-29T17:15:01.903Z,39.45
2022-12-29T17:17:34.075Z,38.85
2022-12-29T17:20:05.616Z,38.17
2022-12-29T17:22:36.348Z,36.03
2022-12-29T17:25:07.495Z,34.25
2022-12-29T17:27:39.064Z,31.73
2022-12-29T17:30:12.839Z,32.15
2022-12-29T17:32:43.372Z,32.97
2022-12-29T17:35:15.743Z,32.10
2022-12-29T17:37:46.291Z,31.85
2022-12-29T17:40:17.417Z,36.05
2022-12-29T17:42:48.549Z,35.37
2022-12-29T17:45:19.304Z,37.55
2022-12-29T17:47:50.227Z,42.23
2022-12-29T17:50:20.751Z,37.73
2022-12-29T17:52:52.512Z,39.60
2022-12-29T17:55:23.443Z,37.80
2022-12-29T17:57:53.560Z,39.25
2022-12-29T18:00:24.909Z,38.30
2022-12-29T18:02:54.735Z,38.80
2022-12-29T18:05:26.370Z,40.60
2022-12-29T18:07:57.112Z,39.43
2022-12-29T18:10:28.857Z,39.17
2022-12-29T18:13:00.410Z,39.20
2022-12-29T18:15:30.529Z,40.23
2022-12-29T18:18:01.671Z,40.90
2022-12-29T18:20:32.195Z,40.13
2022-12-29T18:23:02.520Z,42.20
2022-12-29T18:25:39.600Z,44.90
2022-12-29T18:28:09.103Z,44.55
2022-12-29T18:30:39.839Z,43.60
2022-12-29T18:33:19.264Z,43.47
2022-12-29T18:35:53.174Z,50.48
2022-12-29T18:38:23.089Z,53.73
2022-12-29T18:40:53.417Z,56.35
2022-12-29T18:43:23.120Z,54.93
2022-12-29T18:45:52.825Z,53.05
2022-12-29T18:48:22.771Z,54.40
2022-12-29T18:50:53.290Z,52.67
2022-12-29T18:53:24.008Z,54.65
2022-12-29T18:55:54.741Z,59.35
2022-12-29T18:58:30.604Z,65.80
2022-12-29T19:01:04.855Z,71.10
2022-12-29T19:03:34.968Z,76.95
2022-12-29T19:06:04.827Z,74.50
2022-12-29T19:08:34.124Z,77.70
2022-12-29T19:11:03.833Z,72.90
2022-12-29T19:13:33.479Z,63.90
2022-12-29T19:16:04.138Z,57.33
2022-12-29T19:19:05.899Z,51.75
2022-12-29T19:21:23.761Z,44.80
2022-12-29T19:23:53.671Z,45.67
2022-12-29T19:26:28.103Z,44.85
2022-12-29T19:28:58.208Z,49.17
2022-12-29T19:31:28.463Z,47.70
2022-12-29T19:33:58.452Z,46.50
2022-12-29T19:36:28.561Z,43.90
2022-12-29T19:38:58.679Z,41.97
2022-12-29T19:41:28.597Z,39.55
2022-12-29T19:43:58.302Z,38.95
2022-12-29T19:46:28.028Z,36.87
2022-12-29T19:48:59.762Z,34.15
2022-12-29T19:51:29.488Z,32.20
2022-12-29T19:53:59.026Z,32.10
2022-12-29T19:56:29.093Z,34.87
2022-12-29T19:58:58.799Z,35.33
2022-12-29T20:01:28.817Z,32.85
2022-12-29T20:04:00.059Z,35.63
2022-12-29T20:06:29.780Z,35.45
2022-12-29T20:09:01.931Z,37.45
2022-12-29T20:11:31.845Z,36.70
2022-12-29T20:14:01.960Z,35.70
2022-12-29T20:16:31.954Z,36.35
2022-12-29T20:19:04.250Z,35.70
2022-12-29T20:21:34.145Z,33.03
2022-12-29T20:24:05.504Z,33.85
2022-12-29T20:26:35.006Z,36.40
2022-12-29T20:29:04.918Z,38.60
2022-12-29T20:31:36.550Z,40.37
2022-12-29T20:34:08.431Z,41.40
2022-12-29T20:36:39.981Z,41.13
2022-12-29T20:39:12.763Z,39.53
2022-12-29T20:41:42.264Z,40.60
2022-12-29T20:44:12.994Z,37.90
2022-12-29T20:46:44.296Z,36.67
2022-12-29T20:49:14.264Z,36.50
2022-12-29T20:52:05.697Z,35.93
2022-12-29T20:54:39.030Z,37.80
2022-12-29T20:57:09.815Z,39.00
2022-12-29T20:59:39.304Z,43.87
2022-12-29T21:02:17.777Z,42.35
2022-12-29T21:05:21.956Z,46.75
2022-12-29T21:07:38.332Z,44.75
2022-12-29T21:10:08.235Z,46.85
2022-12-29T21:12:38.358Z,46.47
2022-12-29T21:15:09.686Z,49.40
2022-12-29T21:17:39.210Z,43.45
2022-12-29T21:20:10.352Z,41.20
2022-12-29T21:22:40.490Z,40.57
2022-12-29T21:25:11.197Z,37.65
2022-12-29T21:27:43.362Z,38.53
2022-12-29T21:30:14.732Z,42.95
2022-12-29T21:32:44.418Z,48.13
2022-12-29T21:35:14.942Z,43.80
2022-12-29T21:37:45.063Z,44.03
2022-12-29T21:40:15.187Z,41.93
2022-12-29T21:42:45.092Z,37.93
2022-12-29T21:45:27.293Z,38.45
2022-12-29T21:48:17.071Z,40.70
2022-12-29T21:51:05.832Z,36.15
2022-12-29T21:53:39.217Z,38.63
2022-12-29T21:56:09.953Z,38.83
2022-12-29T21:58:58.506Z,36.60
2022-12-29T22:01:47.540Z,36.97
2022-12-29T22:04:36.419Z,38.30
2022-12-29T22:07:25.627Z,39.30
2022-12-29T22:10:13.128Z,42.15
2022-12-29T22:12:59.058Z,40.10
2022-12-29T22:15:30.611Z,39.87
2022-12-29T22:18:01.497Z,40.75
2022-12-29T22:20:32.847Z,39.57
2022-12-29T22:23:03.366Z,40.05
2022-12-29T22:25:33.476Z,39.17
2022-12-29T22:28:03.181Z,36.65
2022-12-29T22:30:33.712Z,35.60
2022-12-29T22:33:03.621Z,38.70
2022-12-29T22:35:33.334Z,37.27
2022-12-29T22:38:03.040Z,37.05
2022-12-29T22:40:33.156Z,39.10
2022-12-29T22:43:05.585Z,37.50
2022-12-29T22:45:39.743Z,34.60
2022-12-29T22:48:09.461Z,36.07
2022-12-29T22:50:40.203Z,37.30
2022-12-29T22:53:09.890Z,37.10
2022-12-29T22:55:40.618Z,38.20
2022-12-29T22:58:10.735Z,40.83
2022-12-29T23:00:40.656Z,42.00
2022-12-29T23:03:10.444Z,47.60
2022-12-29T23:05:40.268Z,46.63
2022-12-29T23:08:09.982Z,45.00
2022-12-29T23:10:39.690Z,43.05
2022-12-29T23:13:09.390Z,40.57
2022-12-29T23:15:39.531Z,40.10
2022-12-29T23:18:09.403Z,39.25
2022-12-29T23:20:39.341Z,37.95
2022-12-29T23:23:09.051Z,39.10
2022-12-29T23:25:39.155Z,40.87
2022-12-29T23:28:09.073Z,43.10
2022-12-29T23:30:38.780Z,47.10
2022-12-29T23:33:08.289Z,48.80
2022-12-29T23:35:37.996Z,49.65
2022-12-29T23:38:07.701Z,46.63
2022-12-29T23:40:37.419Z,45.50
2022-12-29T23:43:07.119Z,47.40
2022-12-29T23:45:36.842Z,48.97
2022-12-29T23:48:07.145Z,45.95
2022-12-29T23:50:39.107Z,43.60
2022-12-29T23:53:08.611Z,40.10
2022-12-29T23:55:39.340Z,40.07
2022-12-29T23:58:09.665Z,43.10
